Time;durP1;ratioP1;P1;durP2;ratioP2;P2;SDS_P1;SDS_P2;PMS_P1;PMS_P2;Temp;Humidity;BMP_temperature;BMP_pressure;BME280_temperature;BME280_humidity;BME280_pressure;Samples;Min_cycle;Max_cycle;Signal;HPM_P1;HPM_P2
2023/09/27 00:00:34;;;;;;;7.55;4.10;;;13.60;99.90;;;;;;5128477;27;20036;-74
2023/09/27 00:03:00;;;;;;;5.53;4.40;;;13.50;99.90;;;;;;5086561;28;20039;-74
2023/09/27 00:05:27;;;;;;;4.53;3.10;;;13.50;99.90;;;;;;5090263;28;20088;-74
2023/09/27 00:07:53;;;;;;;7.22;4.20;;;13.50;99.90;;;;;;5097203;28;20036;-74
2023/09/27 00:10:18;;;;;;;4.68;3.33;;;13.50;99.90;;;;;;5097860;28;20117;-74
2023/09/27 00:12:48;;;;;;;5.60;4.30;;;13.50;99.90;;;;;;5095695;28;20106;-75
2023/09/27 00:15:14;;;;;;;4.50;2.97;;;13.50;99.90;;;;;;5111935;28;20052;-74
2023/09/27 00:17:41;;;;;;;4.13;3.15;;;13.40;99.90;;;;;;5098302;28;20062;-75
2023/09/27 00:20:15;;;;;;;6.78;3.22;;;13.40;99.90;;;;;;5098532;28;20047;-74
2023/09/27 00:22:42;;;;;;;4.05;3.13;;;13.40;99.90;;;;;;5106857;28;20047;-74
2023/09/27 00:25:10;;;;;;;6.57;4.18;;;13.40;99.90;;;;;;5104442;28;20047;-74
2023/09/27 00:27:37;;;;;;;7.95;3.80;;;13.40;99.90;;;;;;5101056;28;20078;-73
2023/09/27 00:30:04;;;;;;;4.63;3.63;;;13.40;99.90;;;;;;5136782;27;20099;-73
2023/09/27 00:32:30;;;;;;;6.35;3.25;;;13.40;99.90;;;;;;5132509;27;20035;-73
2023/09/27 00:34:56;;;;;;;6.25;3.85;;;13.40;99.90;;;;;;5101134;28;20051;-73
2023/09/27 00:37:22;;;;;;;7.07;4.07;;;13.40;99.90;;;;;;5134272;27;20035;-73
2023/09/27 00:39:47;;;;;;;4.93;3.45;;;13.40;99.90;;;;;;5137546;27;20044;-74
2023/09/27 00:42:13;;;;;;;6.72;3.80;;;13.40;99.90;;;;;;5099010;28;20040;-74
2023/09/27 00:44:39;;;;;;;6.95;3.88;;;13.40;99.90;;;;;;5134148;27;20035;-74
2023/09/27 00:47:06;;;;;;;5.10;3.88;;;13.50;99.90;;;;;;5101541;28;20028;-74
2023/09/27 00:49:32;;;;;;;7.25;3.53;;;13.50;99.90;;;;;;5130018;27;20036;-74
2023/09/27 00:51:59;;;;;;;4.97;3.63;;;13.50;99.90;;;;;;5132195;27;20043;-74
2023/09/27 00:54:26;;;;;;;6.03;4.05;;;13.40;99.90;;;;;;5084638;28;20052;-74
2023/09/27 00:56:52;;;;;;;6.35;4.15;;;13.40;99.90;;;;;;5137521;27;20119;-74
2023/09/27 00:59:19;;;;;;;5.95;3.58;;;13.40;99.90;;;;;;5098466;28;20047;-74
2023/09/27 01:01:46;;;;;;;5.20;4.00;;;13.40;99.90;;;;;;5101964;28;20024;-73
2023/09/27 01:04:13;;;;;;;7.07;4.47;;;13.40;99.90;;;;;;5105277;28;20020;-74
2023/09/27 01:06:40;;;;;;;6.18;3.75;;;13.30;99.90;;;;;;5082675;28;20074;-73
2023/09/27 01:09:06;;;;;;;5.95;4.30;;;13.30;99.90;;;;;;5133230;27;20072;-73
2023/09/27 01:11:33;;;;;;;6.00;3.97;;;13.30;99.90;;;;;;5096291;28;20054;-74
2023/09/27 01:13:59;;;;;;;6.88;4.70;;;13.30;99.90;;;;;;5112104;28;20039;-74
2023/09/27 01:16:25;;;;;;;5.95;3.78;;;13.20;99.90;;;;;;5131636;27;20040;-73
2023/09/27 01:18:50;;;;;;;4.38;3.72;;;13.20;99.90;;;;;;5135821;27;20106;-74
2023/09/27 01:21:19;;;;;;;3.88;3.42;;;13.20;99.90;;;;;;5095294;28;20043;-74
2023/09/27 01:23:48;;;;;;;6.97;3.70;;;13.20;99.90;;;;;;5096270;28;20067;-74
2023/09/27 01:26:16;;;;;;;6.93;4.43;;;13.20;99.90;;;;;;5105247;28;20398;-73
2023/09/27 01:28:46;;;;;;;4.53;3.20;;;13.20;99.90;;;;;;5127989;27;20064;-74
2023/09/27 01:31:12;;;;;;;5.25;3.80;;;13.20;99.90;;;;;;5134731;27;20108;-74
2023/09/27 01:33:39;;;;;;;6.45;4.53;;;13.20;99.90;;;;;;5095459;28;20048;-74
2023/09/27 01:36:05;;;;;;;5.53;3.67;;;13.10;99.90;;;;;;5133552;27;20071;-74
2023/09/27 01:38:31;;;;;;;6.85;4.90;;;13.10;99.90;;;;;;5113891;28;20045;-74
2023/09/27 01:40:57;;;;;;;6.50;4.10;;;13.10;99.90;;;;;;5134827;27;20039;-73
2023/09/27 01:43:23;;;;;;;8.55;4.53;;;13.10;99.90;;;;;;5095365;28;20068;-73
2023/09/27 01:45:49;;;;;;;5.63;4.03;;;13.10;99.90;;;;;;5096357;28;20055;-73
2023/09/27 01:48:14;;;;;;;5.63;4.13;;;13.00;99.90;;;;;;5082802;28;20059;-74
2023/09/27 01:50:41;;;;;;;5.88;4.45;;;13.00;99.90;;;;;;5098167;28;20100;-74
2023/09/27 01:53:07;;;;;;;4.72;3.58;;;13.00;99.90;;;;;;5131891;27;20044;-74
2023/09/27 01:55:33;;;;;;;6.80;4.35;;;13.00;99.90;;;;;;5100751;28;20047;-74
2023/09/27 01:58:00;;;;;;;6.05;4.20;;;13.00;99.90;;;;;;5092172;28;20100;-74
2023/09/27 02:00:26;;;;;;;6.43;4.25;;;13.00;99.90;;;;;;5117229;28;20495;-74
2023/09/27 02:02:55;;;;;;;5.38;3.65;;;13.00;99.90;;;;;;5096689;28;20044;-72
2023/09/27 02:05:22;;;;;;;4.80;4.00;;;12.90;99.90;;;;;;5129574;27;20096;-73
2023/09/27 02:07:48;;;;;;;7.20;4.47;;;12.90;99.90;;;;;;5076849;28;20047;-73
2023/09/27 02:10:13;;;;;;;6.35;4.18;;;12.90;99.90;;;;;;5086688;28;20040;-73
2023/09/27 02:12:40;;;;;;;5.75;3.97;;;12.90;99.90;;;;;;5095303;28;20036;-74
2023/09/27 02:15:10;;;;;;;4.72;3.88;;;12.90;99.90;;;;;;5124597;28;20044;-73
2023/09/27 02:17:36;;;;;;;5.63;4.70;;;12.80;99.90;;;;;;5127678;28;20100;-73
2023/09/27 02:20:12;;;;;;;8.43;4.45;;;12.80;99.90;;;;;;5097145;28;20060;-73
2023/09/27 02:22:40;;;;;;;4.38;3.55;;;12.80;99.90;;;;;;5131735;28;20036;-72
2023/09/27 02:25:11;;;;;;;5.60;3.72;;;12.70;99.90;;;;;;5126868;27;20032;-73
2023/09/27 02:27:41;;;;;;;4.32;3.55;;;12.70;99.90;;;;;;5098409;28;20036;-73
2023/09/27 02:30:12;;;;;;;6.40;4.15;;;12.70;99.90;;;;;;5128160;28;20045;-73
2023/09/27 02:32:43;;;;;;;5.38;4.28;;;12.70;99.90;;;;;;5097033;28;20104;-73
2023/09/27 02:35:09;;;;;;;10.52;4.40;;;12.60;99.90;;;;;;5105102;28;20032;-73
2023/09/27 02:37:36;;;;;;;6.90;4.03;;;12.60;99.90;;;;;;5083808;28;20104;-74
2023/09/27 02:40:11;;;;;;;8.15;4.53;;;12.60;99.90;;;;;;5097732;28;20047;-73
2023/09/27 02:42:41;;;;;;;6.60;4.80;;;12.60;99.90;;;;;;5097389;28;20055;-73
2023/09/27 02:45:11;;;;;;;7.28;4.32;;;12.60;99.90;;;;;;5095059;28;20071;-73
2023/09/27 02:47:39;;;;;;;5.32;3.80;;;12.50;99.90;;;;;;5093457;28;20032;-73
2023/09/27 02:50:09;;;;;;;9.75;5.18;;;12.50;99.90;;;;;;5084822;28;20066;-73
2023/09/27 02:52:36;;;;;;;5.55;3.80;;;12.50;99.90;;;;;;5111971;28;20040;-73
2023/09/27 02:55:01;;;;;;;6.50;4.55;;;12.50;99.90;;;;;;5093802;28;20102;-73
2023/09/27 02:57:27;;;;;;;9.10;4.10;;;12.50;99.90;;;;;;5128903;27;20032;-73
2023/09/27 02:59:53;;;;;;;5.10;4.13;;;12.40;99.90;;;;;;5129294;27;20036;-73
2023/09/27 03:02:20;;;;;;;5.55;3.75;;;12.40;99.90;;;;;;5100522;28;20058;-73
2023/09/27 03:04:47;;;;;;;6.32;4.35;;;12.40;99.90;;;;;;5133004;27;20036;-73
2023/09/27 03:07:16;;;;;;;6.65;4.97;;;12.40;99.90;;;;;;5096138;28;20044;-73
2023/09/27 03:09:42;;;;;;;6.63;4.22;;;12.30;99.90;;;;;;5127964;27;20051;-73
2023/09/27 03:12:08;;;;;;;5.15;4.13;;;12.30;99.90;;;;;;5099170;28;20040;-73
2023/09/27 03:14:34;;;;;;;7.80;4.57;;;12.30;99.90;;;;;;5127768;27;20079;-73
2023/09/27 03:17:01;;;;;;;6.05;4.25;;;12.20;99.90;;;;;;5093942;28;20048;-73
2023/09/27 03:19:27;;;;;;;5.22;4.07;;;12.20;99.90;;;;;;5134985;27;20047;-73
2023/09/27 03:21:52;;;;;;;7.22;4.32;;;12.20;99.90;;;;;;5091614;28;20055;-72
2023/09/27 03:24:18;;;;;;;5.18;4.13;;;12.20;99.90;;;;;;5098809;28;20101;-72
2023/09/27 03:26:44;;;;;;;6.60;4.28;;;12.20;99.90;;;;;;5096249;28;20040;-73
2023/09/27 03:29:10;;;;;;;7.30;4.88;;;12.10;99.90;;;;;;5099144;28;20036;-72
2023/09/27 03:31:35;;;;;;;6.93;4.78;;;12.10;99.90;;;;;;5097576;28;20173;-73
2023/09/27 03:34:01;;;;;;;5.13;4.07;;;12.10;99.90;;;;;;5083344;28;20047;-72
2023/09/27 03:36:28;;;;;;;6.15;4.65;;;12.10;99.90;;;;;;5095915;28;20583;-73
2023/09/27 03:38:54;;;;;;;7.90;4.45;;;12.10;99.90;;;;;;5078103;28;20033;-72
2023/09/27 03:41:20;;;;;;;6.70;4.43;;;12.10;99.90;;;;;;5098507;28;20044;-72
2023/09/27 03:43:46;;;;;;;7.20;4.80;;;12.10;99.90;;;;;;5100001;28;20036;-72
2023/09/27 03:46:12;;;;;;;7.07;4.22;;;12.10;99.90;;;;;;5095151;28;20111;-72
2023/09/27 03:48:37;;;;;;;6.63;4.07;;;12.00;99.90;;;;;;5090814;28;20056;-73
2023/09/27 03:51:03;;;;;;;5.38;4.47;;;12.00;99.90;;;;;;5092737;28;20123;-73
2023/09/27 03:53:31;;;;;;;6.90;4.07;;;12.00;99.90;;;;;;5086815;28;20041;-73
2023/09/27 03:55:56;;;;;;;5.60;4.60;;;12.00;99.90;;;;;;5110960;28;20032;-73
2023/09/27 03:58:22;;;;;;;8.63;4.63;;;12.00;99.90;;;;;;5089872;28;20070;-74
2023/09/27 04:00:48;;;;;;;6.03;4.70;;;12.00;99.90;;;;;;5091004;28;20040;-73
2023/09/27 04:03:13;;;;;;;5.40;3.92;;;12.00;99.90;;;;;;5127419;27;20464;-73
2023/09/27 04:05:39;;;;;;;6.63;4.80;;;12.00;99.90;;;;;;5125491;27;20059;-73
2023/09/27 04:08:05;;;;;;;6.53;4.10;;;12.00;99.90;;;;;;5091755;28;20093;-74
2023/09/27 04:10:31;;;;;;;6.95;4.90;;;11.90;99.90;;;;;;5091374;28;20066;-73
2023/09/27 04:12:57;;;;;;;6.18;4.43;;;11.90;99.90;;;;;;5128006;27;20043;-73
2023/09/27 04:15:23;;;;;;;5.43;4.22;;;11.90;99.90;;;;;;5097377;28;20046;-73
2023/09/27 04:17:49;;;;;;;6.70;4.97;;;11.90;99.90;;;;;;5094196;28;20097;-73
2023/09/27 04:20:18;;;;;;;7.25;4.75;;;11.90;99.90;;;;;;5084191;28;20121;-73
2023/09/27 04:22:45;;;;;;;6.45;4.40;;;11.90;99.90;;;;;;5123991;27;20050;-73
2023/09/27 04:25:15;;;;;;;6.05;4.28;;;11.90;99.90;;;;;;5074481;28;20035;-73
2023/09/27 04:27:49;;;;;;;7.80;4.85;;;11.90;99.90;;;;;;5087401;28;20033;-73
2023/09/27 04:30:18;;;;;;;6.28;4.53;;;11.90;99.90;;;;;;5087134;28;20068;-73
2023/09/27 04:32:51;;;;;;;12.20;4.60;;;11.90;99.90;;;;;;5093584;28;20032;-73
2023/09/27 04:35:18;;;;;;;6.30;4.93;;;11.90;99.90;;;;;;5121947;27;20036;-73
2023/09/27 04:37:43;;;;;;;4.95;4.13;;;11.80;99.90;;;;;;5091518;28;20035;-73
2023/09/27 04:40:13;;;;;;;4.90;3.83;;;11.80;99.90;;;;;;5127585;27;20460;-73
2023/09/27 04:42:43;;;;;;;6.63;4.30;;;11.80;99.90;;;;;;5119267;27;20086;-73
2023/09/27 04:45:11;;;;;;;6.40;4.68;;;11.80;99.90;;;;;;5125581;27;20048;-73
2023/09/27 04:47:37;;;;;;;6.38;4.75;;;11.80;99.90;;;;;;5088902;28;20040;-73
2023/09/27 04:50:05;;;;;;;5.80;4.55;;;11.80;99.90;;;;;;5086960;28;20048;-73
2023/09/27 04:52:31;;;;;;;5.65;4.00;;;11.80;99.90;;;;;;5120767;27;20105;-73
2023/09/27 04:54:57;;;;;;;6.97;4.72;;;11.70;99.90;;;;;;5089198;28;20380;-73
2023/09/27 04:57:24;;;;;;;5.82;4.65;;;11.70;99.90;;;;;;5120069;27;20052;-72
2023/09/27 04:59:52;;;;;;;7.35;4.80;;;11.70;99.90;;;;;;5104325;28;20032;-73
2023/09/27 05:02:20;;;;;;;6.38;4.53;;;11.80;99.90;;;;;;5125409;27;20113;-72
2023/09/27 05:04:47;;;;;;;5.35;4.60;;;11.70;99.90;;;;;;5127429;27;20032;-73
2023/09/27 05:07:15;;;;;;;6.70;4.72;;;11.70;99.90;;;;;;5122457;27;20059;-73
2023/09/27 05:09:41;;;;;;;7.20;4.65;;;11.70;99.90;;;;;;5106121;28;20055;-73
2023/09/27 05:12:07;;;;;;;7.45;4.82;;;11.80;99.90;;;;;;5080745;28;20144;-70
2023/09/27 05:14:33;;;;;;;6.55;3.92;;;11.80;99.90;;;;;;5065089;28;20087;-71
2023/09/27 05:16:58;;;;;;;6.50;4.40;;;11.80;99.90;;;;;;5081118;28;20380;-70
2023/09/27 05:19:24;;;;;;;5.63;4.70;;;11.80;99.90;;;;;;5083050;28;20289;-71
2023/09/27 05:21:50;;;;;;;7.60;4.78;;;11.80;99.90;;;;;;5078578;28;20397;-71
2023/09/27 05:24:16;;;;;;;9.27;4.53;;;11.90;99.90;;;;;;5073106;28;20058;-70
2023/09/27 05:26:41;;;;;;;8.00;5.20;;;12.00;99.90;;;;;;5113328;27;20040;-69
2023/09/27 05:29:15;;;;;;;10.95;5.30;;;12.00;99.90;;;;;;5081054;28;20496;-70
2023/09/27 05:31:41;;;;;;;7.57;5.30;;;12.00;99.90;;;;;;5111782;27;20068;-70
2023/09/27 05:34:07;;;;;;;8.45;6.10;;;12.10;99.90;;;;;;5112239;27;20236;-71
2023/09/27 05:36:33;;;;;;;7.82;5.05;;;12.10;99.90;;;;;;5072756;28;20392;-70
2023/09/27 05:39:00;;;;;;;6.15;4.60;;;12.20;99.90;;;;;;5077549;28;20135;-71
2023/09/27 05:41:26;;;;;;;7.13;5.05;;;12.30;99.90;;;;;;5111881;27;20036;-69
2023/09/27 05:43:52;;;;;;;9.27;5.63;;;12.30;99.90;;;;;;5073280;28;20143;-70
2023/09/27 05:46:18;;;;;;;6.97;5.03;;;12.30;99.90;;;;;;5113021;27;20111;-70
2023/09/27 05:48:44;;;;;;;7.10;5.30;;;12.40;99.90;;;;;;5108601;27;20036;-70
2023/09/27 05:51:10;;;;;;;6.63;5.30;;;12.40;99.90;;;;;;5073213;28;20049;-70
2023/09/27 05:53:36;;;;;;;8.93;6.20;;;12.40;99.90;;;;;;5073921;28;20107;-70
2023/09/27 05:56:03;;;;;;;7.72;5.28;;;12.50;99.90;;;;;;5060070;28;20040;-69
2023/09/27 05:58:33;;;;;;;9.00;5.47;;;12.50;99.90;;;;;;5079062;28;20044;-69
2023/09/27 06:01:04;;;;;;;8.27;5.70;;;12.50;99.90;;;;;;5112061;28;20036;-70
2023/09/27 06:03:31;;;;;;;8.52;5.00;;;12.50;99.90;;;;;;5079216;28;20714;-70
2023/09/27 06:05:58;;;;;;;7.70;5.70;;;12.60;99.90;;;;;;5081516;28;20040;-71
2023/09/27 06:08:24;;;;;;;8.57;5.68;;;12.60;99.90;;;;;;5068528;28;20040;-69
2023/09/27 06:10:50;;;;;;;6.20;5.55;;;12.60;99.90;;;;;;5097393;28;20078;-69
2023/09/27 06:13:16;;;;;;;6.88;4.88;;;12.70;99.90;;;;;;5114295;27;20045;-69
2023/09/27 06:15:42;;;;;;;7.85;5.45;;;12.80;99.90;;;;;;5119812;27;20028;-70
2023/09/27 06:18:07;;;;;;;6.63;5.40;;;12.70;99.90;;;;;;5085404;28;20052;-70
2023/09/27 06:20:33;;;;;;;7.72;5.07;;;12.80;99.90;;;;;;5118507;27;20040;-70
2023/09/27 06:23:03;;;;;;;7.55;5.63;;;12.80;99.90;;;;;;5088640;28;20032;-69
2023/09/27 06:25:30;;;;;;;9.48;6.15;;;12.80;99.90;;;;;;5126622;27;20050;-72
2023/09/27 06:28:00;;;;;;;7.28;5.65;;;12.80;99.90;;;;;;5119726;27;20043;-70
2023/09/27 06:30:26;;;;;;;9.20;6.00;;;12.80;99.90;;;;;;5086093;28;20043;-70
2023/09/27 06:32:52;;;;;;;8.50;5.47;;;12.90;99.90;;;;;;5123639;27;20043;-70
2023/09/27 06:35:18;;;;;;;9.20;6.35;;;12.90;99.90;;;;;;5090096;28;20044;-71
2023/09/27 06:37:48;;;;;;;7.85;5.57;;;12.90;99.90;;;;;;5122261;27;20039;-71
2023/09/27 06:40:23;;;;;;;7.63;5.70;;;12.90;99.90;;;;;;5089448;28;20032;-71
2023/09/27 06:42:49;;;;;;;7.43;5.30;;;13.00;99.90;;;;;;5119699;27;20051;-71
2023/09/27 06:45:17;;;;;;;7.57;5.57;;;13.00;99.90;;;;;;5085361;28;20036;-71
2023/09/27 06:47:47;;;;;;;7.55;5.80;;;13.10;99.90;;;;;;5088622;28;20542;-70
2023/09/27 06:50:17;;;;;;;9.52;6.13;;;13.10;99.90;;;;;;5120723;27;20123;-71
2023/09/27 06:52:45;;;;;;;6.88;5.60;;;13.20;99.90;;;;;;5123121;27;20031;-71
2023/09/27 06:55:12;;;;;;;7.70;5.60;;;13.30;99.90;;;;;;5083862;28;20119;-71
2023/09/27 06:57:42;;;;;;;6.30;4.70;;;13.40;99.90;;;;;;5088256;28;20047;-71
2023/09/27 07:00:13;;;;;;;8.45;5.82;;;13.60;99.90;;;;;;5071191;28;20089;-70
2023/09/27 07:02:42;;;;;;;9.00;5.93;;;13.80;99.90;;;;;;5088567;28;20048;-69
2023/09/27 07:05:09;;;;;;;10.77;6.50;;;13.90;99.90;;;;;;5087132;28;20237;-70
2023/09/27 07:07:35;;;;;;;8.80;5.85;;;14.10;99.90;;;;;;5119648;27;20039;-70
2023/09/27 07:10:00;;;;;;;10.30;5.65;;;14.30;99.90;;;;;;5077889;28;20043;-70
2023/09/27 07:12:26;;;;;;;10.80;7.47;;;14.50;99.90;;;;;;5095739;28;20038;-70
2023/09/27 07:14:52;;;;;;;9.82;5.85;;;14.60;99.90;;;;;;5069645;28;20395;-70
2023/09/27 07:17:18;;;;;;;8.90;5.97;;;14.80;99.90;;;;;;5117252;27;20052;-70
2023/09/27 07:19:43;;;;;;;8.60;6.00;;;14.80;99.90;;;;;;5119586;27;20397;-70
2023/09/27 07:22:10;;;;;;;6.88;5.13;;;14.90;99.90;;;;;;5084544;28;20040;-69
2023/09/27 07:24:36;;;;;;;8.35;5.85;;;15.00;99.90;;;;;;5086310;28;20048;-71
2023/09/27 07:27:02;;;;;;;8.70;6.43;;;15.10;99.90;;;;;;5084416;28;20043;-70
2023/09/27 07:29:28;;;;;;;7.70;5.93;;;15.10;99.90;;;;;;5088179;28;20039;-70
2023/09/27 07:31:54;;;;;;;7.60;5.63;;;15.20;99.90;;;;;;5121175;27;20038;-70
2023/09/27 07:34:20;;;;;;;9.07;6.32;;;15.20;99.90;;;;;;5086443;28;20044;-70
2023/09/27 07:36:46;;;;;;;7.55;5.63;;;15.20;99.90;;;;;;5102310;28;20044;-71
2023/09/27 07:39:13;;;;;;;6.97;5.78;;;15.20;99.90;;;;;;5105047;28;20043;-70
2023/09/27 07:41:40;;;;;;;8.85;6.75;;;15.20;99.90;;;;;;5119333;27;20044;-70
2023/09/27 07:44:09;;;;;;;9.43;6.47;;;15.30;99.90;;;;;;5117934;27;20456;-71
2023/09/27 07:46:35;;;;;;;7.47;5.35;;;15.40;99.90;;;;;;5120912;27;20047;-69
2023/09/27 07:49:02;;;;;;;8.40;6.10;;;15.60;99.90;;;;;;5085065;28;20053;-70
2023/09/27 07:51:28;;;;;;;7.63;5.40;;;15.70;99.90;;;;;;5085943;28;20549;-71
2023/09/27 07:53:54;;;;;;;9.13;5.82;;;15.80;99.90;;;;;;5085177;28;20039;-70
2023/09/27 07:56:26;;;;;;;7.65;5.68;;;15.90;99.90;;;;;;5117491;27;20040;-70
2023/09/27 07:58:53;;;;;;;8.57;6.45;;;16.00;99.90;;;;;;5086386;28;20036;-70
2023/09/27 08:01:23;;;;;;;8.25;6.10;;;16.00;99.90;;;;;;5086367;28;20039;-69
2023/09/27 08:04:00;;;;;;;7.13;5.88;;;15.90;99.90;;;;;;5084998;28;20069;-70
2023/09/27 08:06:26;;;;;;;6.22;5.32;;;15.90;99.90;;;;;;5085962;28;20047;-70
2023/09/27 08:08:52;;;;;;;8.90;5.95;;;16.00;99.90;;;;;;5101708;28;20644;-70
2023/09/27 08:11:18;;;;;;;7.45;5.95;;;16.20;99.90;;;;;;5121876;27;20035;-71
2023/09/27 08:13:44;;;;;;;8.82;6.20;;;16.70;99.90;;;;;;5105438;28;20123;-71
2023/09/27 08:16:10;;;;;;;8.15;5.80;;;17.50;99.90;;;;;;5121562;27;20056;-70
2023/09/27 08:18:37;;;;;;;8.82;6.05;;;18.40;99.90;;;;;;5082647;28;20059;-70
2023/09/27 08:21:03;;;;;;;9.80;6.80;;;19.30;99.90;;;;;;5118301;27;20043;-71
2023/09/27 08:23:29;;;;;;;7.60;5.65;;;20.20;99.90;;;;;;5082830;28;20048;-71
2023/09/27 08:25:58;;;;;;;6.78;5.15;;;20.80;99.90;;;;;;5089569;28;20062;-70
2023/09/27 08:28:23;;;;;;;7.00;4.85;;;21.10;99.90;;;;;;5071749;28;20040;-71
2023/09/27 08:30:49;;;;;;;7.70;5.50;;;21.60;99.90;;;;;;5120730;27;20031;-70
2023/09/27 08:33:15;;;;;;;7.13;4.93;;;21.90;99.90;;;;;;5083449;28;20039;-71
2023/09/27 08:35:40;;;;;;;6.50;4.53;;;21.90;99.90;;;;;;5087956;28;20040;-70
2023/09/27 08:38:07;;;;;;;6.72;4.32;;;21.90;99.90;;;;;;5117957;27;20044;-71
2023/09/27 08:40:34;;;;;;;5.78;4.40;;;22.00;99.90;;;;;;5122534;27;20058;-71
2023/09/27 08:43:00;;;;;;;6.70;4.57;;;22.40;99.90;;;;;;5072979;28;20044;-70
2023/09/27 08:45:26;;;;;;;5.15;3.97;;;22.60;99.90;;;;;;5082575;28;20046;-71
2023/09/27 08:47:53;;;;;;;6.00;3.75;;;23.10;99.90;;;;;;5112362;27;20044;-71
2023/09/27 08:50:20;;;;;;;6.18;4.50;;;23.50;99.90;;;;;;5079659;28;20118;-71
2023/09/27 08:52:47;;;;;;;6.95;4.22;;;23.90;99.90;;;;;;5100753;28;20034;-71
2023/09/27 08:55:13;;;;;;;5.82;4.00;;;24.20;99.90;;;;;;5066370;28;20086;-71
2023/09/27 08:57:51;;;;;;;7.25;3.90;;;24.40;99.90;;;;;;5116800;27;20052;-71
2023/09/27 09:00:24;;;;;;;5.53;4.07;;;24.20;99.90;;;;;;5081523;28;20044;-71
2023/09/27 09:02:58;;;;;;;4.85;3.85;;;23.90;99.90;;;;;;5089629;28;20036;-71
2023/09/27 09:05:27;;;;;;;6.53;4.30;;;23.50;99.90;;;;;;5078761;28;20142;-71
2023/09/27 09:07:55;;;;;;;5.35;3.40;;;23.70;99.90;;;;;;5067797;28;20065;-70
2023/09/27 09:10:22;;;;;;;5.90;3.83;;;24.10;99.90;;;;;;5091152;28;20127;-74
2023/09/27 09:12:49;;;;;;;3.63;3.22;;;24.70;99.90;;;;;;5120626;28;20035;-75
2023/09/27 09:15:40;;;;;;;4.55;3.13;;;25.20;99.90;;;;;;5099027;28;20474;-74
2023/09/27 09:18:11;;;;;;;4.47;2.95;;;25.60;99.90;;;;;;5100805;28;20068;-74
2023/09/27 09:20:54;;;;;;;2.83;2.50;;;25.80;99.90;;;;;;5101389;28;20095;-74
2023/09/27 09:23:36;;;;;;;4.13;2.67;;;26.10;99.90;;;;;;5118235;28;20040;-74
2023/09/27 09:26:09;;;;;;;3.85;2.97;;;25.80;99.90;;;;;;5116922;28;20071;-74
2023/09/27 09:28:55;;;;;;;5.40;2.67;;;25.30;99.90;;;;;;5101775;28;20111;-74
2023/09/27 09:31:22;;;;;;;4.10;2.40;;;25.30;99.90;;;;;;5132554;27;20048;-74
2023/09/27 09:34:05;;;;;;;2.78;1.95;;;25.60;99.90;;;;;;5096169;28;20277;-75
2023/09/27 09:36:31;;;;;;;2.55;1.80;;;26.10;99.90;;;;;;5093591;28;20048;-74
2023/09/27 09:39:13;;;;;;;4.78;2.10;;;26.40;99.90;;;;;;5132454;27;20127;-74
2023/09/27 09:41:51;;;;;;;3.83;2.03;;;26.40;99.90;;;;;;5133796;27;20055;-74
2023/09/27 09:44:22;;;;;;;4.40;1.25;;;26.00;99.90;;;;;;5091145;28;20036;-74
2023/09/27 09:46:49;;;;;;;2.75;1.40;;;25.40;99.90;;;;;;5137506;27;20048;-74
2023/09/27 09:49:16;;;;;;;2.10;1.58;;;24.90;99.90;;;;;;5115227;28;20016;-75
2023/09/27 09:51:46;;;;;;;5.10;1.80;;;24.30;99.90;;;;;;5083430;28;20108;-74
2023/09/27 09:54:17;;;;;;;2.85;2.30;;;23.90;99.90;;;;;;5137605;27;20039;-74
2023/09/27 09:56:47;;;;;;;3.63;1.85;;;24.00;99.90;;;;;;5116031;28;20737;-74
2023/09/27 09:59:15;;;;;;;4.30;2.35;;;24.20;99.90;;;;;;5102318;28;20046;-74
2023/09/27 10:01:42;;;;;;;4.28;2.22;;;24.70;99.90;;;;;;5136958;28;20039;-75
2023/09/27 10:04:08;;;;;;;3.13;2.03;;;25.30;99.90;;;;;;5113332;28;20279;-75
2023/09/27 10:06:36;;;;;;;3.85;2.00;;;25.40;99.90;;;;;;5095304;28;20039;-75
2023/09/27 10:09:05;;;;;;;3.63;1.70;;;25.10;99.90;;;;;;5130696;28;20227;-75
2023/09/27 10:11:33;;;;;;;6.05;2.35;;;24.80;99.90;;;;;;5130045;28;20051;-75
2023/09/27 10:14:00;;;;;;;2.95;2.22;;;24.40;99.90;;;;;;5116182;28;20138;-74
2023/09/27 10:16:26;;;;;;;3.22;2.17;;;23.90;99.90;;;;;;5079203;28;20083;-74
2023/09/27 10:18:54;;;;;;;5.05;3.28;;;23.50;99.90;;;;;;5111637;28;20099;-75
2023/09/27 10:21:20;;;;;;;5.10;1.95;;;23.20;99.90;;;;;;5095480;28;20036;-75
2023/09/27 10:23:46;;;;;;;4.47;2.35;;;23.00;99.90;;;;;;5133374;28;20047;-75
2023/09/27 10:26:33;;;;;;;3.55;1.95;;;23.00;99.90;;;;;;5134309;28;20051;-75
2023/09/27 10:29:09;;;;;;;5.15;2.67;;;23.30;99.90;;;;;;5129777;28;20055;-75
2023/09/27 10:31:37;;;;;;;3.85;2.25;;;23.40;99.90;;;;;;5125946;28;20044;-75
2023/09/27 10:34:42;;;;;;;4.93;2.47;;;23.60;99.90;;;;;;5126861;28;20042;-75
2023/09/27 10:37:08;;;;;;;3.97;2.30;;;23.50;99.90;;;;;;5037388;28;20101;-76
2023/09/27 10:39:38;;;;;;;3.72;2.55;;;23.00;99.90;;;;;;5025680;28;20619;-75
2023/09/27 10:42:04;;;;;;;5.68;2.72;;;22.80;99.90;;;;;;5064811;28;20044;-75
2023/09/27 10:44:34;;;;;;;2.90;2.20;;;23.00;99.90;;;;;;5103132;28;20076;-75
2023/09/27 10:47:06;;;;;;;3.78;2.50;;;23.30;99.90;;;;;;5093682;28;20085;-75
2023/09/27 10:49:40;;;;;;;5.45;2.80;;;23.60;99.90;;;;;;5113765;28;20517;-75
2023/09/27 10:52:18;;;;;;;3.47;2.40;;;23.60;99.90;;;;;;5127779;28;20032;-75
2023/09/27 10:54:45;;;;;;;3.60;2.35;;;23.90;99.90;;;;;;5095799;28;20039;-75
2023/09/27 10:57:14;;;;;;;3.75;2.30;;;24.30;99.90;;;;;;5135225;27;20049;-76
2023/09/27 10:59:41;;;;;;;2.90;2.10;;;24.70;99.90;;;;;;5131451;27;20113;-76
2023/09/27 11:02:07;;;;;;;4.95;2.17;;;24.90;99.90;;;;;;5084876;28;20039;-76
2023/09/27 11:04:33;;;;;;;3.03;2.15;;;25.20;99.90;;;;;;5082031;28;20039;-76
2023/09/27 11:06:59;;;;;;;4.13;2.25;;;25.30;99.90;;;;;;5100663;28;20051;-76
2023/09/27 11:09:27;;;;;;;2.63;1.77;;;25.00;99.90;;;;;;5102440;28;20043;-76
2023/09/27 11:11:54;;;;;;;2.92;1.98;;;24.80;99.90;;;;;;5098504;28;20461;-76
2023/09/27 11:14:34;;;;;;;3.00;2.17;;;24.70;99.90;;;;;;5133473;27;20039;-76
2023/09/27 11:17:22;;;;;;;5.47;2.45;;;24.40;99.90;;;;;;5135950;27;20055;-76
2023/09/27 11:19:48;;;;;;;2.70;1.83;;;23.90;99.90;;;;;;5101873;28;20048;-76
2023/09/27 11:22:28;;;;;;;3.35;1.80;;;23.50;99.90;;;;;;5133707;27;20032;-76
2023/09/27 11:24:54;;;;;;;3.90;2.17;;;23.30;99.90;;;;;;5131696;27;20067;-76
2023/09/27 11:27:20;;;;;;;3.85;1.77;;;23.30;99.90;;;;;;5131186;27;20048;-76
2023/09/27 11:29:53;;;;;;;4.60;2.10;;;23.20;99.90;;;;;;5097159;28;20123;-76
2023/09/27 11:32:23;;;;;;;2.75;1.92;;;23.20;99.90;;;;;;5095556;28;20066;-76
2023/09/27 11:34:59;;;;;;;2.65;1.60;;;23.50;99.90;;;;;;5112506;28;20071;-76
2023/09/27 11:37:26;;;;;;;5.28;2.72;;;23.90;99.90;;;;;;5103266;28;20047;-76
2023/09/27 11:39:55;;;;;;;5.70;2.08;;;23.70;99.90;;;;;;5131693;27;20396;-76
2023/09/27 11:42:25;;;;;;;3.45;2.17;;;23.50;99.90;;;;;;5083056;28;20042;-76
2023/09/27 11:45:06;;;;;;;3.50;2.22;;;23.20;99.90;;;;;;5135738;27;20039;-76
2023/09/27 11:47:44;;;;;;;4.00;2.40;;;23.10;99.90;;;;;;5116114;28;20058;-76
2023/09/27 11:50:09;;;;;;;3.70;2.08;;;22.80;99.90;;;;;;5100227;28;20039;-75
2023/09/27 11:52:35;;;;;;;4.60;2.53;;;22.70;99.90;;;;;;5099671;28;20050;-75
2023/09/27 11:55:01;;;;;;;2.95;1.98;;;22.60;99.90;;;;;;5100705;28;20032;-75
2023/09/27 11:57:26;;;;;;;3.65;1.80;;;22.40;99.90;;;;;;5070340;28;20105;-74
2023/09/27 11:59:55;;;;;;;7.80;1.88;;;22.20;99.90;;;;;;5125365;27;20042;-74
2023/09/27 12:02:21;;;;;;;5.13;2.53;;;22.20;99.90;;;;;;5133554;27;20032;-74
2023/09/27 12:04:47;;;;;;;3.92;2.30;;;22.30;99.90;;;;;;5097212;28;20095;-75
2023/09/27 12:07:13;;;;;;;4.13;2.85;;;22.50;99.90;;;;;;5107848;28;20071;-75
2023/09/27 12:09:41;;;;;;;3.80;2.60;;;22.50;99.90;;;;;;5128735;27;20043;-75
2023/09/27 12:12:07;;;;;;;4.22;2.22;;;22.40;99.90;;;;;;5127364;27;20094;-75
2023/09/27 12:14:33;;;;;;;5.55;3.22;;;22.40;99.90;;;;;;5102715;28;20131;-76
2023/09/27 12:16:59;;;;;;;3.60;2.17;;;22.30;99.90;;;;;;5080615;28;20080;-76
2023/09/27 12:19:24;;;;;;;4.38;2.65;;;22.30;99.90;;;;;;5076612;28;20495;-77
2023/09/27 12:21:50;;;;;;;4.50;2.38;;;22.50;99.90;;;;;;5066041;28;20096;-77
2023/09/27 12:24:16;;;;;;;3.35;2.20;;;22.60;99.90;;;;;;5110714;27;20031;-76
2023/09/27 12:26:42;;;;;;;3.80;2.30;;;22.60;99.90;;;;;;5113159;27;20027;-76
2023/09/27 12:29:08;;;;;;;4.65;2.58;;;22.60;99.90;;;;;;5108111;27;20040;-76
2023/09/27 12:31:34;;;;;;;3.53;2.42;;;22.50;99.90;;;;;;5077947;28;20511;-76
2023/09/27 12:34:00;;;;;;;3.55;2.33;;;22.50;99.90;;;;;;5071725;28;20082;-76
2023/09/27 12:36:25;;;;;;;4.88;2.78;;;22.50;99.90;;;;;;5077608;28;20121;-77
2023/09/27 12:38:51;;;;;;;2.88;1.85;;;22.50;99.90;;;;;;5108720;27;20067;-77
2023/09/27 12:41:17;;;;;;;3.60;2.38;;;22.50;99.90;;;;;;5093985;28;20065;-77
2023/09/27 12:43:43;;;;;;;4.25;2.35;;;22.50;99.90;;;;;;5112012;27;20111;-77
2023/09/27 12:46:09;;;;;;;4.32;2.95;;;22.50;99.90;;;;;;5092820;28;20424;-76
2023/09/27 12:48:36;;;;;;;3.88;2.33;;;22.60;99.90;;;;;;5070934;28;20042;-76